createdAt,value
2022-11-13T00:00:01.218Z,2.51
2022-11-13T00:01:01.201Z,2.47
2022-11-13T00:02:01.213Z,2.35
2022-11-13T00:03:01.237Z,2.45
2022-11-13T00:04:01.278Z,2.48
2022-11-13T00:05:01.164Z,2.35
2022-11-13T00:06:01.163Z,2.47
2022-11-13T00:07:01.216Z,2.50
2022-11-13T00:08:01.146Z,2.53
2022-11-13T00:09:01.163Z,2.54
2022-11-13T00:10:01.135Z,2.53
2022-11-13T00:11:01.178Z,2.51
2022-11-13T00:12:01.159Z,2.51
2022-11-13T00:13:01.193Z,2.54
2022-11-13T00:14:01.116Z,2.45
2022-11-13T00:15:01.121Z,2.43
2022-11-13T00:16:01.105Z,2.43
2022-11-13T00:17:01.112Z,2.40
2022-11-13T00:18:01.236Z,2.40
2022-11-13T00:19:01.096Z,2.45
2022-11-13T00:20:01.207Z,2.45
2022-11-13T00:21:01.071Z,2.37
2022-11-13T00:22:01.067Z,2.43
2022-11-13T00:23:01.066Z,2.40
2022-11-13T00:24:01.163Z,2.42
2022-11-13T00:25:01.037Z,2.30
2022-11-13T00:26:01.042Z,2.37
2022-11-13T00:27:01.034Z,2.37
2022-11-13T00:28:01.028Z,2.48
2022-11-13T00:29:01.056Z,2.33
2022-11-13T00:30:01.012Z,2.37
2022-11-13T00:31:01.036Z,2.43
2022-11-13T00:32:01.020Z,2.37
2022-11-13T00:33:01.006Z,2.33
2022-11-13T00:35:03.223Z,2.32
2022-11-13T00:36:00.997Z,2.36
2022-11-13T00:37:00.992Z,2.37
2022-11-13T00:38:00.973Z,2.30
2022-11-13T00:39:00.982Z,2.29
2022-11-13T00:40:00.979Z,2.24
2022-11-13T00:41:01.008Z,2.37
2022-11-13T00:42:00.964Z,2.25
2022-11-13T00:43:00.957Z,2.24
2022-11-13T00:44:00.946Z,2.25
2022-11-13T00:45:00.955Z,2.29
2022-11-13T00:46:00.950Z,2.19
2022-11-13T00:47:00.941Z,2.21
2022-11-13T00:48:00.917Z,2.15
2022-11-13T00:49:00.923Z,2.21
2022-11-13T00:50:00.904Z,2.18
2022-11-13T00:51:01.003Z,2.19
2022-11-13T00:52:00.993Z,2.17
2022-11-13T00:53:00.893Z,2.25
2022-11-13T00:54:00.900Z,2.22
2022-11-13T00:55:00.883Z,2.25
2022-11-13T00:56:00.877Z,2.15
2022-11-13T00:57:00.882Z,2.33
2022-11-13T00:58:00.857Z,2.30
2022-11-13T00:59:00.856Z,2.21
2022-11-13T01:00:00.867Z,2.29
2022-11-13T01:01:00.890Z,2.28
2022-11-13T01:02:00.902Z,2.18
2022-11-13T01:03:00.865Z,2.33
2022-11-13T01:04:00.888Z,2.25
2022-11-13T01:05:00.815Z,2.14
2022-11-13T01:06:00.825Z,2.14
2022-11-13T01:07:00.943Z,2.19
2022-11-13T01:08:00.845Z,2.30
2022-11-13T01:09:00.803Z,2.28
2022-11-13T01:10:00.798Z,2.28
2022-11-13T01:11:00.801Z,2.36
2022-11-13T01:12:00.782Z,2.18
2022-11-13T01:13:00.796Z,2.21
2022-11-13T01:14:00.818Z,2.25
2022-11-13T01:15:00.783Z,2.18
2022-11-13T01:16:00.761Z,2.21
2022-11-13T01:17:00.773Z,2.17
2022-11-13T01:18:00.753Z,2.15
2022-11-13T01:19:00.780Z,2.15
2022-11-13T01:20:00.749Z,2.18
2022-11-13T01:21:00.739Z,2.17
2022-11-13T01:22:00.759Z,2.21
2022-11-13T01:23:00.827Z,2.10
2022-11-13T01:24:00.732Z,2.06
2022-11-13T01:25:00.836Z,2.06
2022-11-13T01:26:00.757Z,1.92
2022-11-13T01:27:00.719Z,2.03
2022-11-13T01:28:00.721Z,2.01
2022-11-13T01:29:00.717Z,2.06
2022-11-13T01:30:00.722Z,2.03
2022-11-13T01:31:00.714Z,1.99
2022-11-13T01:32:01.672Z,1.99
2022-11-13T01:33:00.685Z,2.01
2022-11-13T01:34:00.684Z,1.95
2022-11-13T01:35:00.667Z,2.00
2022-11-13T01:36:00.785Z,1.95
2022-11-13T01:37:00.649Z,1.99
2022-11-13T01:38:00.648Z,1.93
2022-11-13T01:39:00.681Z,1.93
2022-11-13T01:40:00.626Z,1.85
2022-11-13T01:41:00.728Z,1.87
2022-11-13T01:42:00.639Z,1.84
2022-11-13T01:43:00.628Z,1.78
2022-11-13T01:44:00.617Z,1.85
2022-11-13T01:45:00.613Z,1.92
2022-11-13T01:46:00.610Z,1.84
2022-11-13T01:47:00.628Z,1.82
2022-11-13T01:48:00.600Z,1.81
2022-11-13T01:49:00.596Z,1.81
2022-11-13T01:50:00.580Z,1.78
2022-11-13T01:51:00.583Z,1.78
2022-11-13T01:52:00.612Z,1.82
2022-11-13T01:53:00.573Z,1.80
2022-11-13T01:54:00.577Z,1.71
2022-11-13T01:55:00.658Z,1.69
2022-11-13T01:56:00.552Z,1.69
2022-11-13T01:57:00.557Z,1.66
2022-11-13T01:58:00.592Z,1.63
2022-11-13T01:59:00.547Z,1.69
2022-11-13T02:00:00.556Z,1.64
2022-11-13T02:01:00.522Z,1.71
2022-11-13T02:02:00.593Z,1.57
2022-11-13T02:03:01.569Z,1.67
2022-11-13T02:04:00.528Z,1.69
2022-11-13T02:05:00.521Z,1.67
2022-11-13T02:06:00.506Z,1.55
2022-11-13T02:07:00.546Z,1.59
2022-11-13T02:08:00.516Z,1.56
2022-11-13T02:09:00.534Z,1.59
2022-11-13T02:10:00.519Z,1.52
2022-11-13T02:11:00.567Z,1.45
2022-11-13T02:12:00.495Z,1.45
2022-11-13T02:13:00.488Z,1.38
2022-11-13T02:14:00.496Z,1.46
2022-11-13T02:15:00.464Z,1.49
2022-11-13T02:16:00.507Z,1.46
2022-11-13T02:17:00.434Z,1.49
2022-11-13T02:18:00.473Z,1.53
2022-11-13T02:19:00.517Z,1.44
2022-11-13T02:20:00.447Z,1.27
2022-11-13T02:21:00.434Z,1.41
2022-11-13T02:22:00.440Z,1.35
2022-11-13T02:23:00.446Z,1.48
2022-11-13T02:24:00.436Z,1.46
2022-11-13T02:25:00.397Z,1.48
2022-11-13T02:26:00.407Z,1.52
2022-11-13T02:27:00.485Z,1.45
2022-11-13T02:28:00.413Z,1.39
2022-11-13T02:29:00.392Z,1.28
2022-11-13T02:30:00.411Z,1.36
2022-11-13T02:31:00.364Z,1.34
2022-11-13T02:32:01.268Z,1.31
2022-11-13T02:33:00.383Z,1.34
2022-11-13T02:34:00.347Z,1.20
2022-11-13T02:35:00.351Z,1.38
2022-11-13T02:36:00.324Z,1.35
2022-11-13T02:37:00.340Z,1.39
2022-11-13T02:38:00.337Z,1.35
2022-11-13T02:39:00.331Z,1.27
2022-11-13T02:40:00.343Z,1.30
2022-11-13T02:41:32.791Z,1.23
2022-11-13T02:42:00.352Z,1.21
2022-11-13T02:43:00.417Z,1.21
2022-11-13T02:44:00.304Z,1.21
2022-11-13T02:45:00.308Z,1.16
2022-11-13T02:46:00.289Z,1.17
2022-11-13T02:47:00.291Z,1.24
2022-11-13T02:48:00.304Z,1.23
2022-11-13T02:49:00.279Z,1.18
2022-11-13T02:50:00.261Z,1.16
2022-11-13T02:51:00.260Z,1.23
2022-11-13T02:52:00.262Z,1.23
2022-11-13T02:53:00.326Z,1.18
2022-11-13T02:54:00.269Z,1.17
2022-11-13T02:55:00.248Z,1.21
2022-11-13T02:56:00.218Z,1.08
2022-11-13T02:57:00.216Z,1.18
2022-11-13T02:58:00.245Z,1.17
2022-11-13T02:59:00.310Z,1.16
2022-11-13T03:00:00.231Z,1.08
2022-11-13T03:01:00.193Z,1.10
2022-11-13T03:02:00.273Z,1.10
2022-11-13T03:03:00.220Z,1.06
2022-11-13T03:04:00.181Z,1.12
2022-11-13T03:05:15.284Z,1.08
2022-11-13T03:06:02.174Z,1.18
2022-11-13T03:07:00.282Z,1.09
2022-11-13T03:08:00.151Z,1.10
2022-11-13T03:09:00.186Z,1.18
2022-11-13T03:10:00.140Z,1.16
2022-11-13T03:11:00.126Z,1.08
2022-11-13T03:12:01.146Z,1.16
2022-11-13T03:13:00.236Z,1.05
2022-11-13T03:14:00.147Z,1.05
2022-11-13T03:15:00.201Z,1.10
2022-11-13T03:16:00.099Z,1.05
2022-11-13T03:17:00.127Z,0.92
2022-11-13T03:18:00.103Z,1.00
2022-11-13T03:19:00.108Z,1.09
2022-11-13T03:20:00.213Z,1.09
2022-11-13T03:21:00.090Z,1.16
2022-11-13T03:22:00.100Z,1.06
2022-11-13T03:23:00.082Z,1.05
2022-11-13T03:24:00.081Z,1.12
2022-11-13T03:25:00.080Z,1.17
2022-11-13T03:26:00.111Z,1.12
2022-11-13T03:27:00.037Z,1.08
2022-11-13T03:28:00.040Z,1.13
2022-11-13T03:29:00.050Z,0.94
2022-11-13T03:30:00.056Z,1.02
2022-11-13T03:31:00.236Z,1.03
2022-11-13T03:32:00.014Z,0.91
2022-11-13T03:33:00.020Z,0.96
2022-11-13T03:34:00.005Z,0.94
2022-11-13T03:35:00.003Z,0.85
2022-11-13T03:36:00.020Z,0.91
2022-11-13T03:37:00.006Z,0.81
2022-11-13T03:37:59.979Z,0.90
2022-11-13T03:38:59.988Z,0.80
2022-11-13T03:39:59.980Z,0.82
2022-11-13T03:40:59.973Z,0.96
2022-11-13T03:42:00.091Z,0.99
2022-11-13T03:42:59.950Z,1.05
2022-11-13T03:43:59.962Z,0.99
2022-11-13T03:44:59.949Z,0.99
2022-11-13T03:45:59.940Z,0.98
2022-11-13T03:47:00.040Z,0.96
2022-11-13T03:47:59.924Z,0.98
2022-11-13T03:48:59.928Z,0.91
2022-11-13T03:49:59.911Z,1.00
2022-11-13T03:50:59.913Z,0.99
2022-11-13T03:51:59.926Z,0.98
2022-11-13T03:52:59.923Z,1.02
2022-11-13T03:53:59.907Z,0.84
2022-11-13T03:54:59.886Z,0.81
2022-11-13T03:55:59.879Z,0.94
2022-11-13T03:56:59.881Z,0.88
2022-11-13T03:57:59.887Z,0.78
2022-11-13T03:58:59.862Z,0.87
2022-11-13T03:59:59.853Z,0.78
2022-11-13T04:00:59.853Z,0.90
2022-11-13T04:01:59.937Z,0.76
2022-11-13T04:02:59.933Z,0.90
2022-11-13T04:03:59.857Z,0.78
2022-11-13T04:04:59.844Z,0.81
2022-11-13T04:05:59.814Z,0.87
2022-11-13T04:06:59.836Z,0.84
2022-11-13T04:07:59.823Z,0.85
2022-11-13T04:08:59.824Z,0.90
2022-11-13T04:09:59.812Z,0.94
2022-11-13T04:10:59.786Z,0.85
2022-11-13T04:11:59.795Z,0.85
2022-11-13T04:12:59.780Z,0.88
2022-11-13T04:13:59.795Z,0.82
2022-11-13T04:14:59.832Z,0.81
2022-11-13T04:15:59.773Z,0.90
2022-11-13T04:16:59.751Z,0.81
2022-11-13T04:17:59.842Z,0.81
2022-11-13T04:18:59.843Z,0.82
2022-11-13T04:19:59.875Z,0.90
2022-11-13T04:20:59.754Z,0.85
2022-11-13T04:21:59.736Z,0.80
2022-11-13T04:22:59.716Z,0.82
2022-11-13T04:23:59.696Z,0.84
2022-11-13T04:24:59.733Z,0.85
2022-11-13T04:25:59.829Z,0.90
2022-11-13T04:26:59.708Z,0.78
2022-11-13T04:27:59.680Z,0.74
2022-11-13T04:28:59.687Z,0.84
2022-11-13T04:29:59.688Z,0.81
2022-11-13T04:30:59.688Z,0.78
2022-11-13T04:31:59.674Z,0.72
2022-11-13T04:32:59.690Z,0.87
2022-11-13T04:33:59.700Z,0.85
2022-11-13T04:34:59.743Z,0.91
2022-11-13T04:35:59.674Z,0.73
2022-11-13T04:36:59.679Z,0.78
2022-11-13T04:37:59.632Z,0.82
2022-11-13T04:38:59.628Z,0.81
2022-11-13T04:39:59.627Z,0.80
2022-11-13T04:40:59.605Z,0.72
2022-11-13T04:41:59.742Z,0.80
2022-11-13T04:42:59.619Z,0.85
2022-11-13T04:43:59.598Z,0.82
2022-11-13T04:44:59.597Z,0.73
2022-11-13T04:45:59.591Z,0.78
2022-11-13T04:46:59.579Z,0.78
2022-11-13T04:47:59.587Z,0.72
2022-11-13T04:48:59.592Z,0.82
2022-11-13T04:49:59.574Z,0.63
2022-11-13T04:50:59.644Z,0.81
2022-11-13T04:51:59.539Z,0.76
2022-11-13T04:52:59.568Z,0.84
2022-11-13T04:53:59.568Z,0.78
2022-11-13T04:54:59.539Z,0.81
2022-11-13T04:55:59.539Z,0.72
2022-11-13T04:56:59.544Z,0.78
2022-11-13T04:57:59.526Z,0.69
2022-11-13T04:58:59.635Z,0.76
2022-11-13T04:59:59.503Z,0.82
2022-11-13T05:00:59.496Z,0.84
2022-11-13T05:01:59.536Z,0.87
2022-11-13T05:02:59.503Z,0.70
2022-11-13T05:03:59.619Z,0.74
2022-11-13T05:05:04.660Z,0.76
2022-11-13T05:06:01.490Z,0.73
2022-11-13T05:06:59.630Z,0.81
2022-11-13T05:07:59.529Z,0.64
2022-11-13T05:08:59.460Z,0.81
2022-11-13T05:09:59.480Z,0.70
2022-11-13T05:10:59.456Z,0.69
2022-11-13T05:11:59.441Z,0.66
2022-11-13T05:12:59.428Z,0.76
2022-11-13T05:14:03.266Z,0.69
2022-11-13T05:15:00.555Z,0.72
2022-11-13T05:15:59.662Z,0.74
2022-11-13T05:16:59.409Z,0.70
2022-11-13T05:17:59.691Z,0.70
2022-11-13T05:18:59.409Z,0.60
2022-11-13T05:19:59.404Z,0.66
2022-11-13T05:20:59.437Z,0.62
2022-11-13T05:21:59.401Z,0.64
2022-11-13T05:22:59.472Z,0.67
2022-11-13T05:23:59.377Z,0.66
2022-11-13T05:24:59.369Z,0.60
2022-11-13T05:25:59.387Z,0.64
2022-11-13T05:26:59.335Z,0.69
2022-11-13T05:27:59.381Z,0.70
2022-11-13T05:28:59.331Z,0.67
2022-11-13T05:29:59.362Z,0.74
2022-11-13T05:30:59.328Z,0.70
2022-11-13T05:31:59.385Z,0.72
2022-11-13T05:32:59.308Z,0.76
2022-11-13T05:34:04.346Z,0.69
2022-11-13T05:35:01.290Z,0.60
2022-11-13T05:35:59.348Z,0.55
2022-11-13T05:36:59.321Z,0.56
2022-11-13T05:37:59.293Z,0.60
2022-11-13T05:38:59.376Z,0.53
2022-11-13T05:39:59.285Z,0.51
2022-11-13T05:40:59.268Z,0.59
2022-11-13T05:41:59.253Z,0.44
2022-11-13T05:42:59.386Z,0.59
2022-11-13T05:43:59.904Z,0.63
2022-11-13T05:44:59.251Z,0.59
2022-11-13T05:45:59.257Z,0.47
2022-11-13T05:46:59.241Z,0.43
2022-11-13T05:47:59.379Z,0.47
2022-11-13T05:48:59.229Z,0.40
2022-11-13T05:50:00.199Z,0.47
2022-11-13T05:50:59.213Z,0.35
2022-11-13T05:51:59.202Z,0.45
2022-11-13T05:52:59.182Z,0.36
2022-11-13T05:53:59.234Z,0.33
2022-11-13T05:54:59.278Z,0.32
2022-11-13T05:55:59.179Z,0.35
2022-11-13T05:56:59.173Z,0.32
2022-11-13T05:57:59.815Z,0.32
2022-11-13T05:58:59.184Z,0.26
2022-11-13T05:59:59.154Z,0.36
2022-11-13T06:00:59.817Z,0.32
2022-11-13T06:01:59.170Z,0.44
2022-11-13T06:02:59.137Z,0.45
2022-11-13T06:03:59.196Z,0.40
2022-11-13T06:04:59.139Z,0.48
2022-11-13T06:05:59.124Z,0.36
2022-11-13T06:06:59.164Z,0.32
2022-11-13T06:07:59.117Z,0.32
2022-11-13T06:08:59.096Z,0.35
2022-11-13T06:09:59.218Z,0.29
2022-11-13T06:10:59.189Z,0.36
2022-11-13T06:11:59.074Z,0.26
2022-11-13T06:12:59.087Z,0.29
2022-11-13T06:13:59.092Z,0.35
2022-11-13T06:14:59.073Z,0.30
2022-11-13T06:15:59.113Z,0.30
2022-11-13T06:16:59.125Z,0.30
2022-11-13T06:17:59.065Z,0.27
2022-11-13T06:18:59.056Z,0.32
2022-11-13T06:19:59.035Z,0.35
2022-11-13T06:20:59.177Z,0.30
2022-11-13T06:21:59.036Z,0.29
2022-11-13T06:22:59.028Z,0.29
2022-11-13T06:23:59.027Z,0.25
2022-11-13T06:24:59.007Z,0.23
2022-11-13T06:25:58.996Z,0.26
2022-11-13T06:26:59.187Z,0.33
2022-11-13T06:27:58.982Z,0.36
2022-11-13T06:28:59.073Z,0.27
2022-11-13T06:29:58.985Z,0.35
2022-11-13T06:30:58.960Z,0.27
2022-11-13T06:31:58.981Z,0.32
2022-11-13T06:32:58.975Z,0.26
2022-11-13T06:33:58.956Z,0.30
2022-11-13T06:34:58.947Z,0.29
2022-11-13T06:35:58.930Z,0.30
2022-11-13T06:37:01.287Z,0.32
2022-11-13T06:37:58.980Z,0.37
2022-11-13T06:38:59.001Z,0.32
2022-11-13T06:39:58.948Z,0.44
2022-11-13T06:40:59.007Z,0.35
2022-11-13T06:41:58.902Z,0.40
2022-11-13T06:42:59.000Z,0.40
2022-11-13T06:44:02.697Z,0.41
2022-11-13T06:44:59.891Z,0.36
2022-11-13T06:45:58.892Z,0.32
2022-11-13T06:46:58.867Z,0.30
2022-11-13T06:47:58.894Z,0.29
2022-11-13T06:48:58.883Z,0.29
2022-11-13T06:49:58.871Z,0.32
2022-11-13T06:50:58.858Z,0.29
2022-11-13T06:51:58.845Z,0.37
2022-11-13T06:52:58.828Z,0.26
2022-11-13T06:53:58.875Z,0.37
2022-11-13T06:54:58.810Z,0.41
2022-11-13T06:55:58.831Z,0.45
2022-11-13T06:56:58.823Z,0.33
2022-11-13T06:57:58.821Z,0.32
2022-11-13T06:58:58.904Z,0.41
2022-11-13T06:59:58.820Z,0.32
2022-11-13T07:00:58.839Z,0.43
2022-11-13T07:01:58.792Z,0.40
2022-11-13T07:02:59.335Z,0.45
2022-11-13T07:03:58.801Z,0.40
2022-11-13T07:04:58.779Z,0.45
2022-11-13T07:05:58.744Z,0.36
2022-11-13T07:06:58.837Z,0.37
2022-11-13T07:07:58.758Z,0.37
2022-11-13T07:08:58.777Z,0.36
2022-11-13T07:09:59.330Z,0.40
2022-11-13T07:10:58.861Z,0.43
2022-11-13T07:11:58.725Z,0.44
2022-11-13T07:12:58.723Z,0.53
2022-11-13T07:13:58.704Z,0.48
2022-11-13T07:14:58.801Z,0.59
2022-11-13T07:15:58.752Z,0.62
2022-11-13T07:17:09.299Z,0.48
2022-11-13T07:18:00.743Z,0.62
2022-11-13T07:18:58.672Z,0.60
2022-11-13T07:19:58.683Z,0.69
2022-11-13T07:20:59.696Z,0.56
2022-11-13T07:21:58.720Z,0.63
2022-11-13T07:22:58.747Z,0.76
2022-11-13T07:23:58.832Z,0.73
2022-11-13T07:24:58.681Z,0.73
2022-11-13T07:25:58.644Z,0.74
2022-11-13T07:26:58.690Z,0.90
2022-11-13T07:27:58.638Z,0.82
2022-11-13T07:28:58.643Z,0.91
2022-11-13T07:30:03.309Z,1.06
2022-11-13T07:30:58.743Z,1.17
2022-11-13T07:31:58.766Z,1.18
2022-11-13T07:32:58.603Z,1.26
2022-11-13T07:33:58.597Z,1.52
2022-11-13T07:34:58.620Z,2.10
2022-11-13T07:35:58.611Z,2.87
2022-11-13T07:36:58.679Z,3.81
2022-11-13T07:37:58.603Z,4.43
2022-11-13T07:39:00.348Z,5.16
2022-11-13T07:39:58.570Z,5.79
2022-11-13T07:40:58.576Z,6.25
2022-11-13T07:41:58.572Z,6.61
2022-11-13T07:42:58.655Z,7.01
2022-11-13T07:43:58.568Z,7.28
2022-11-13T07:44:58.801Z,7.43
2022-11-13T07:45:58.614Z,7.95
2022-11-13T07:46:58.636Z,8.42
2022-11-13T07:47:58.547Z,8.86
2022-11-13T07:48:58.573Z,9.34
2022-11-13T07:50:06.726Z,9.60
2022-11-13T07:51:00.528Z,9.99
2022-11-13T07:51:58.540Z,10.09
2022-11-13T07:52:58.649Z,9.99
2022-11-13T07:53:58.696Z,9.80
2022-11-13T07:54:58.482Z,9.94
2022-11-13T07:55:58.480Z,10.06
2022-11-13T07:56:58.567Z,10.28
2022-11-13T07:57:58.534Z,10.46
2022-11-13T07:58:58.656Z,10.68
2022-11-13T07:59:58.630Z,10.43
2022-11-13T08:00:59.528Z,10.65
2022-11-13T08:01:58.447Z,10.91
2022-11-13T08:02:58.529Z,11.13
2022-11-13T08:03:58.469Z,11.33
2022-11-13T08:04:58.548Z,11.52
2022-11-13T08:05:59.282Z,11.58
2022-11-13T08:06:58.414Z,11.74
2022-11-13T08:07:58.420Z,11.96
2022-11-13T08:08:58.515Z,12.21
2022-11-13T08:09:58.391Z,12.58
2022-11-13T08:10:58.404Z,13.13
2022-11-13T08:11:58.386Z,13.47
2022-11-13T08:12:58.385Z,13.58
2022-11-13T08:13:58.403Z,13.91
2022-11-13T08:14:58.351Z,14.27
2022-11-13T08:15:58.389Z,14.59
2022-11-13T08:16:58.350Z,14.97
2022-11-13T08:17:58.343Z,15.22
2022-11-13T08:18:58.419Z,15.30
2022-11-13T08:19:58.329Z,15.17
2022-11-13T08:20:58.342Z,15.03
2022-11-13T08:21:58.345Z,14.77
2022-11-13T08:22:58.322Z,14.58
2022-11-13T08:23:58.370Z,14.64
2022-11-13T08:24:58.301Z,14.67
2022-11-13T08:25:58.300Z,14.83
2022-11-13T08:26:58.328Z,14.69
2022-11-13T08:27:58.286Z,14.82
2022-11-13T08:28:58.280Z,14.85
2022-11-13T08:29:58.279Z,15.10
2022-11-13T08:30:58.255Z,15.72
2022-11-13T08:31:58.254Z,16.32
2022-11-13T08:32:58.383Z,16.40
2022-11-13T08:33:58.264Z,16.64
2022-11-13T08:34:58.331Z,16.69
2022-11-13T08:35:58.239Z,16.69
2022-11-13T08:36:58.242Z,17.02
2022-11-13T08:37:58.370Z,16.61
2022-11-13T08:38:58.227Z,16.43
2022-11-13T08:39:58.218Z,16.43
2022-11-13T08:40:58.207Z,16.77
2022-11-13T08:41:58.197Z,16.98
2022-11-13T08:42:58.191Z,17.46
2022-11-13T08:43:58.230Z,17.56
2022-11-13T08:44:58.233Z,17.35
2022-11-13T08:45:58.188Z,17.30
2022-11-13T08:46:58.168Z,17.13
2022-11-13T08:47:58.183Z,16.88
2022-11-13T08:48:58.187Z,16.73
2022-11-13T08:49:58.152Z,16.57
2022-11-13T08:50:58.251Z,16.05
2022-11-13T08:51:58.151Z,15.50
2022-11-13T08:52:58.156Z,15.25
2022-11-13T08:53:58.131Z,15.35
2022-11-13T08:54:58.285Z,15.72
2022-11-13T08:55:58.128Z,15.95
2022-11-13T08:57:03.323Z,16.64
2022-11-13T08:57:59.126Z,17.57
2022-11-13T08:58:58.107Z,18.20
2022-11-13T08:59:58.207Z,18.42
2022-11-13T09:00:58.107Z,18.28
2022-11-13T09:01:58.092Z,18.79
2022-11-13T09:02:58.145Z,18.41
2022-11-13T09:03:58.143Z,18.30
2022-11-13T09:04:58.091Z,18.09
2022-11-13T09:05:58.240Z,18.24
2022-11-13T09:06:58.170Z,18.51
2022-11-13T09:07:58.076Z,18.81
2022-11-13T09:08:58.129Z,18.68
2022-11-13T09:09:58.062Z,18.83
2022-11-13T09:10:58.071Z,18.83
2022-11-13T09:11:58.047Z,19.16
2022-11-13T09:12:58.038Z,18.96
2022-11-13T09:13:58.043Z,18.75
2022-11-13T09:14:58.004Z,18.74
2022-11-13T09:15:58.016Z,18.97
2022-11-13T09:16:58.273Z,19.20
2022-11-13T09:17:58.051Z,19.71
2022-11-13T09:18:57.980Z,20.39
2022-11-13T09:20:03.556Z,20.82
2022-11-13T09:20:59.978Z,20.50
2022-11-13T09:21:57.984Z,20.44
2022-11-13T09:22:58.060Z,20.27
2022-11-13T09:23:57.964Z,20.61
2022-11-13T09:24:57.957Z,20.68
2022-11-13T09:25:57.972Z,21.26
2022-11-13T09:26:57.957Z,21.51
2022-11-13T09:27:58.022Z,22.03
2022-11-13T09:28:57.952Z,21.91
2022-11-13T09:29:57.938Z,21.69
2022-11-13T09:30:57.918Z,21.73
2022-11-13T09:31:57.936Z,21.41
2022-11-13T09:32:57.969Z,21.05
2022-11-13T09:33:57.917Z,20.18
2022-11-13T09:34:57.948Z,19.15
2022-11-13T09:35:57.903Z,18.60
2022-11-13T09:36:57.934Z,17.96
2022-11-13T09:37:57.900Z,17.72
2022-11-13T09:38:57.986Z,17.59
2022-11-13T09:39:57.878Z,17.88
2022-11-13T09:40:57.861Z,18.85
2022-11-13T09:41:57.896Z,19.68
2022-11-13T09:42:57.866Z,20.18
2022-11-13T09:44:00.068Z,20.55
2022-11-13T09:44:58.877Z,20.92
2022-11-13T09:45:57.861Z,20.65
2022-11-13T09:46:57.880Z,20.46
2022-11-13T09:47:57.850Z,20.29
2022-11-13T09:48:57.839Z,19.75
2022-11-13T09:49:57.846Z,18.98
2022-11-13T09:50:57.816Z,17.83
2022-11-13T09:51:58.541Z,16.94
2022-11-13T09:52:57.839Z,16.57
2022-11-13T09:53:57.807Z,17.04
2022-11-13T09:54:57.878Z,18.08
2022-11-13T09:55:57.778Z,18.81
2022-11-13T09:56:57.795Z,19.77
2022-11-13T09:57:58.477Z,20.25
2022-11-13T09:58:58.774Z,20.37
2022-11-13T09:59:57.758Z,20.39
2022-11-13T10:00:57.800Z,20.46
2022-11-13T10:01:57.773Z,20.73
2022-11-13T10:02:57.746Z,20.92
2022-11-13T10:04:03.888Z,21.25
2022-11-13T10:04:59.739Z,21.37
2022-11-13T10:05:57.732Z,21.78
2022-11-13T10:06:57.813Z,22.85
2022-11-13T10:07:57.737Z,22.98
2022-11-13T10:08:57.720Z,23.26
2022-11-13T10:09:57.701Z,23.11
2022-11-13T10:10:57.802Z,23.03
2022-11-13T10:11:57.703Z,22.96
2022-11-13T10:12:57.746Z,22.98
2022-11-13T10:13:57.686Z,23.15
2022-11-13T10:14:57.678Z,23.39
2022-11-13T10:15:57.683Z,23.76
2022-11-13T10:16:57.666Z,23.85
2022-11-13T10:17:57.686Z,24.08
2022-11-13T10:18:57.711Z,24.38
2022-11-13T10:19:57.675Z,24.04
2022-11-13T10:20:57.657Z,23.85
2022-11-13T10:22:07.830Z,23.55
2022-11-13T10:22:59.660Z,23.41
2022-11-13T10:23:58.630Z,22.98
2022-11-13T10:24:57.643Z,23.18
2022-11-13T10:25:57.656Z,23.23
2022-11-13T10:26:57.710Z,23.34
2022-11-13T10:27:57.657Z,23.79
2022-11-13T10:28:57.712Z,24.00
2022-11-13T10:29:57.635Z,24.34
2022-11-13T10:30:57.627Z,23.81
2022-11-13T10:31:57.602Z,23.21
2022-11-13T10:32:57.603Z,23.51
2022-11-13T10:33:57.615Z,23.44
2022-11-13T10:34:57.603Z,23.29
2022-11-13T10:35:57.624Z,23.79
2022-11-13T10:36:57.566Z,23.97
2022-11-13T10:37:57.556Z,24.15
2022-11-13T10:38:57.576Z,24.60
2022-11-13T10:39:57.682Z,24.21
2022-11-13T10:40:57.547Z,23.86
2022-11-13T10:41:57.552Z,23.76
2022-11-13T10:42:57.632Z,23.86
2022-11-13T10:43:57.542Z,23.15
2022-11-13T10:44:58.286Z,22.49
2022-11-13T10:45:57.528Z,21.63
2022-11-13T10:46:57.537Z,22.23
2022-11-13T10:48:04.147Z,22.76
2022-11-13T10:48:59.555Z,22.76
2022-11-13T10:49:57.533Z,23.08
2022-11-13T10:50:57.531Z,23.21
2022-11-13T10:51:57.506Z,22.53
2022-11-13T10:52:57.506Z,22.11
2022-11-13T10:53:57.508Z,20.85
2022-11-13T10:54:57.489Z,20.70
2022-11-13T10:55:57.653Z,21.51
2022-11-13T10:56:57.472Z,21.73
2022-11-13T10:57:57.465Z,22.37
2022-11-13T10:58:57.561Z,22.89
2022-11-13T10:59:57.468Z,23.37
2022-11-13T11:00:57.472Z,23.76
2022-11-13T11:01:57.554Z,23.96
2022-11-13T11:02:57.439Z,23.89
2022-11-13T11:03:57.450Z,24.28
2022-11-13T11:04:57.433Z,24.58
2022-11-13T11:05:57.441Z,24.68
2022-11-13T11:07:19.216Z,24.70
2022-11-13T11:07:59.502Z,24.93
2022-11-13T11:08:57.428Z,25.22
2022-11-13T11:09:57.401Z,25.36
2022-11-13T11:10:57.426Z,25.19
2022-11-13T11:11:57.398Z,24.99
2022-11-13T11:12:57.466Z,24.86
2022-11-13T11:13:57.428Z,24.84
2022-11-13T11:14:57.477Z,24.65
2022-11-13T11:15:57.378Z,24.85
2022-11-13T11:16:57.425Z,25.09
2022-11-13T11:17:57.399Z,24.97
2022-11-13T11:18:57.368Z,25.01
2022-11-13T11:19:57.357Z,24.76
2022-11-13T11:20:57.357Z,24.44
2022-11-13T11:21:57.359Z,24.33
2022-11-13T11:22:57.356Z,24.65
2022-11-13T11:23:57.378Z,24.70
2022-11-13T11:24:57.336Z,24.84
2022-11-13T11:25:57.325Z,25.41
2022-11-13T11:26:57.336Z,26.07
2022-11-13T11:27:57.860Z,26.19
2022-11-13T11:28:57.435Z,25.98
2022-11-13T11:29:57.298Z,25.88
2022-11-13T11:30:57.418Z,25.85
2022-11-13T11:31:57.316Z,25.82
2022-11-13T11:32:57.351Z,25.51
2022-11-13T11:33:57.313Z,25.38
2022-11-13T11:34:59.250Z,25.33
2022-11-13T11:35:57.289Z,25.34
2022-11-13T11:36:57.292Z,25.12
2022-11-13T11:37:59.028Z,25.12
2022-11-13T11:38:57.258Z,25.00
2022-11-13T11:39:57.400Z,25.01
2022-11-13T11:40:57.265Z,25.27
2022-11-13T11:41:57.257Z,25.88
2022-11-13T11:42:57.243Z,26.48
2022-11-13T11:43:57.246Z,26.85
2022-11-13T11:44:57.237Z,26.70
2022-11-13T11:45:57.314Z,26.76
2022-11-13T11:46:57.436Z,26.05
2022-11-13T11:47:58.049Z,26.05
2022-11-13T11:48:57.237Z,26.19
2022-11-13T11:49:57.236Z,26.61
2022-11-13T11:50:57.224Z,26.51
2022-11-13T11:51:57.209Z,26.97
2022-11-13T11:52:57.200Z,26.57
2022-11-13T11:53:57.218Z,26.26
2022-11-13T11:54:57.197Z,26.58
2022-11-13T11:55:57.201Z,26.86
2022-11-13T11:56:57.405Z,26.83
2022-11-13T11:57:57.161Z,26.41
2022-11-13T11:58:57.167Z,26.30
2022-11-13T11:59:57.159Z,26.01
2022-11-13T12:00:57.172Z,26.30
2022-11-13T12:01:57.152Z,26.49
2022-11-13T12:02:57.220Z,26.98
2022-11-13T12:03:57.151Z,27.00
2022-11-13T12:04:57.164Z,26.49
2022-11-13T12:05:57.133Z,26.20
2022-11-13T12:06:57.230Z,25.73
2022-11-13T12:07:57.174Z,25.61
2022-11-13T12:08:57.111Z,25.46
2022-11-13T12:09:57.112Z,25.55
2022-11-13T12:10:57.097Z,26.04
2022-11-13T12:11:57.099Z,26.11
2022-11-13T12:12:57.216Z,26.10
2022-11-13T12:13:57.087Z,26.11
2022-11-13T12:14:57.086Z,26.03
2022-11-13T12:15:57.094Z,26.19
2022-11-13T12:16:57.055Z,26.12
2022-11-13T12:17:57.057Z,26.16
2022-11-13T12:18:57.176Z,26.48
2022-11-13T12:19:57.059Z,26.10
2022-11-13T12:20:57.056Z,25.61
2022-11-13T12:21:57.037Z,25.45
2022-11-13T12:22:57.049Z,25.27
2022-11-13T12:23:57.052Z,25.08
2022-11-13T12:24:57.026Z,25.30
2022-11-13T12:25:57.025Z,25.28
2022-11-13T12:26:57.020Z,25.31
2022-11-13T12:27:57.026Z,25.46
2022-11-13T12:28:57.937Z,25.16
2022-11-13T12:29:57.030Z,25.18
2022-11-13T12:30:56.986Z,25.01
2022-11-13T12:31:57.013Z,24.68
2022-11-13T12:32:57.001Z,24.96
2022-11-13T12:34:01.242Z,24.62
2022-11-13T12:34:57.204Z,25.00
2022-11-13T12:35:57.003Z,24.90
2022-11-13T12:36:56.969Z,24.99
2022-11-13T12:37:56.948Z,25.06
2022-11-13T12:38:56.947Z,25.00
2022-11-13T12:39:56.962Z,25.09
2022-11-13T12:40:56.990Z,25.19
2022-11-13T12:41:56.926Z,24.89
2022-11-13T12:42:56.936Z,24.47
2022-11-13T12:43:56.976Z,24.62
2022-11-13T12:44:56.920Z,24.52
2022-11-13T12:45:57.033Z,24.33
2022-11-13T12:46:56.910Z,24.25
2022-11-13T12:47:56.911Z,24.81
2022-11-13T12:48:56.899Z,25.12
2022-11-13T12:49:56.900Z,24.70
2022-11-13T12:50:56.982Z,24.56
2022-11-13T12:51:57.014Z,23.78
2022-11-13T12:52:56.912Z,23.67
2022-11-13T12:53:56.871Z,23.45
2022-11-13T12:54:56.859Z,23.60
2022-11-13T12:55:56.884Z,23.71
2022-11-13T12:56:56.976Z,24.04
2022-11-13T12:57:56.855Z,23.36
2022-11-13T12:59:23.806Z,22.78
2022-11-13T12:59:58.856Z,22.18
2022-11-13T13:00:56.872Z,21.97
2022-11-13T13:01:56.828Z,22.15
2022-11-13T13:02:56.934Z,22.22
2022-11-13T13:03:56.837Z,22.71
2022-11-13T13:04:56.801Z,22.31
2022-11-13T13:05:56.802Z,22.43
2022-11-13T13:06:56.992Z,22.78
2022-11-13T13:07:58.821Z,22.73